createdAt,value
2023-01-22T00:01:30.738Z,111.38
2023-01-22T00:04:37.643Z,112.97
2023-01-22T00:07:44.673Z,113.21
2023-01-22T00:10:54.536Z,115.08
2023-01-22T00:14:01.638Z,113.44
2023-01-22T00:17:10.644Z,114.50
2023-01-22T00:20:18.132Z,113.90
2023-01-22T00:23:25.175Z,113.73
2023-01-22T00:26:32.364Z,114.92
2023-01-22T00:29:38.518Z,115.03
2023-01-22T00:32:49.214Z,116.51
2023-01-22T00:35:55.429Z,116.51
2023-01-22T00:39:02.411Z,112.08
2023-01-22T00:42:08.742Z,114.23
2023-01-22T00:45:17.992Z,112.41
2023-01-22T00:48:26.890Z,113.40
2023-01-22T00:51:34.083Z,111.16
2023-01-22T00:54:40.208Z,108.34
2023-01-22T00:57:47.339Z,104.58
2023-01-22T01:00:54.353Z,103.34
2023-01-22T01:04:03.993Z,99.22
2023-01-22T01:07:11.818Z,98.29
2023-01-22T01:10:19.649Z,97.66
2023-01-22T01:13:26.359Z,94.87
2023-01-22T01:16:35.554Z,91.92
2023-01-22T01:19:44.551Z,93.38
2023-01-22T01:22:51.719Z,88.77
2023-01-22T01:25:58.360Z,87.28
2023-01-22T01:29:06.605Z,82.46
2023-01-22T01:32:12.659Z,82.03
2023-01-22T01:35:24.282Z,82.17
2023-01-22T01:38:30.571Z,82.70
2023-01-22T01:41:37.395Z,79.03
2023-01-22T01:44:46.251Z,80.29
2023-01-22T01:48:05.319Z,80.08
2023-01-22T01:51:21.137Z,76.17
2023-01-22T01:54:30.844Z,72.05
2023-01-22T01:57:38.976Z,75.00
2023-01-22T02:00:50.188Z,72.19
2023-01-22T02:03:57.324Z,68.98
2023-01-22T02:07:09.070Z,68.61
2023-01-22T02:10:15.496Z,68.48
2023-01-22T02:13:30.196Z,66.61
2023-01-22T02:16:38.437Z,67.33
2023-01-22T02:19:46.986Z,63.38
2023-01-22T02:22:55.997Z,63.56
2023-01-22T02:26:03.956Z,61.75
2023-01-22T02:29:11.845Z,61.31
2023-01-22T02:32:19.001Z,58.27
2023-01-22T02:35:30.042Z,55.90
2023-01-22T02:38:38.752Z,56.15
2023-01-22T02:41:45.803Z,56.35
2023-01-22T02:44:53.689Z,55.04
2023-01-22T02:48:00.599Z,56.74
2023-01-22T02:51:08.473Z,58.50
2023-01-22T02:54:18.215Z,60.73
2023-01-22T02:57:24.330Z,55.92
2023-01-22T03:00:31.201Z,53.14
2023-01-22T03:03:37.228Z,52.06
2023-01-22T03:06:48.433Z,48.83
2023-01-22T03:09:57.085Z,47.37
2023-01-22T03:13:16.353Z,44.23
2023-01-22T03:16:35.028Z,45.55
2023-01-22T03:19:54.370Z,44.74
2023-01-22T03:23:00.607Z,42.13
2023-01-22T03:26:11.434Z,42.34
2023-01-22T03:29:17.652Z,42.20
2023-01-22T03:32:25.406Z,42.48
2023-01-22T03:35:34.781Z,39.98
2023-01-22T03:38:52.645Z,37.13
2023-01-22T03:42:05.666Z,37.98
2023-01-22T03:45:14.090Z,35.22
2023-01-22T03:48:20.336Z,35.57
2023-01-22T03:51:28.564Z,35.83
2023-01-22T03:54:35.728Z,34.67
2023-01-22T03:57:46.665Z,33.58
2023-01-22T04:00:57.775Z,33.50
2023-01-22T04:04:05.032Z,32.70
2023-01-22T04:07:11.719Z,32.16
2023-01-22T04:10:21.511Z,31.88
2023-01-22T04:13:33.937Z,33.14
2023-01-22T04:16:41.749Z,30.79
2023-01-22T04:20:07.467Z,30.32
2023-01-22T04:23:43.521Z,28.74
2023-01-22T04:26:49.862Z,28.71
2023-01-22T04:30:02.132Z,29.11
2023-01-22T04:33:08.946Z,28.20
2023-01-22T04:36:36.619Z,28.68
2023-01-22T04:39:42.677Z,27.86
2023-01-22T04:42:50.233Z,25.98
2023-01-22T04:45:58.889Z,26.18
2023-01-22T04:49:10.228Z,25.23
2023-01-22T04:52:17.907Z,24.59
2023-01-22T04:55:26.229Z,23.67
2023-01-22T04:58:39.164Z,23.55
2023-01-22T05:01:50.830Z,23.11
2023-01-22T05:04:58.432Z,23.67
2023-01-22T05:08:05.496Z,22.91
2023-01-22T05:11:14.563Z,21.94
2023-01-22T05:14:32.703Z,21.75
2023-01-22T05:17:43.240Z,20.84
2023-01-22T05:20:50.095Z,19.45
2023-01-22T05:23:57.661Z,20.44
2023-01-22T05:27:08.457Z,20.75
2023-01-22T05:30:23.991Z,21.32
2023-01-22T05:33:53.761Z,21.24
2023-01-22T05:37:01.593Z,21.61
2023-01-22T05:40:14.037Z,22.85
2023-01-22T05:43:21.983Z,23.03
2023-01-22T05:46:35.704Z,22.80
2023-01-22T05:49:55.942Z,21.40
2023-01-22T05:53:03.019Z,22.70
2023-01-22T05:56:10.531Z,23.58
2023-01-22T05:59:19.808Z,26.88
2023-01-22T06:02:33.494Z,31.36
2023-01-22T06:05:44.124Z,27.69
2023-01-22T06:08:54.340Z,22.91
2023-01-22T06:12:02.931Z,22.56
2023-01-22T06:15:12.001Z,21.57
2023-01-22T06:18:24.655Z,21.41
2023-01-22T06:21:33.359Z,22.26
2023-01-22T06:24:40.476Z,21.13
2023-01-22T06:27:49.531Z,21.20
2023-01-22T06:31:05.644Z,20.96
2023-01-22T06:34:12.604Z,20.91
2023-01-22T06:37:23.123Z,20.42
2023-01-22T06:40:31.058Z,20.14
2023-01-22T06:43:38.076Z,20.32
2023-01-22T06:46:44.133Z,19.76
2023-01-22T06:49:58.329Z,21.09
2023-01-22T06:53:07.488Z,21.17
2023-01-22T06:56:14.566Z,22.09
2023-01-22T06:59:20.784Z,22.87
2023-01-22T07:02:27.904Z,22.39
2023-01-22T07:05:33.937Z,22.06
2023-01-22T07:08:44.023Z,23.58
2023-01-22T07:11:50.319Z,24.82
2023-01-22T07:14:57.363Z,25.27
2023-01-22T07:18:03.575Z,25.35
2023-01-22T07:21:10.745Z,24.76
2023-01-22T07:24:20.416Z,24.09
2023-01-22T07:27:27.542Z,25.81
2023-01-22T07:30:34.723Z,25.75
2023-01-22T07:33:41.788Z,26.16
2023-01-22T07:36:49.905Z,27.35
2023-01-22T07:39:59.443Z,27.41
2023-01-22T07:43:10.830Z,25.82
2023-01-22T07:46:17.710Z,26.47
2023-01-22T07:49:24.188Z,27.78
2023-01-22T07:52:31.185Z,26.88
2023-01-22T07:55:39.910Z,29.66
2023-01-22T07:58:46.911Z,31.17
2023-01-22T08:01:53.073Z,31.78
2023-01-22T08:05:00.039Z,31.93
2023-01-22T08:08:06.252Z,32.62
2023-01-22T08:11:16.144Z,32.84
2023-01-22T08:14:23.255Z,30.86
2023-01-22T08:17:30.252Z,30.19
2023-01-22T08:20:36.804Z,31.70
2023-01-22T08:23:47.523Z,34.15
2023-01-22T08:26:58.568Z,32.45
2023-01-22T08:30:06.123Z,33.72
2023-01-22T08:33:12.255Z,35.61
2023-01-22T08:36:19.184Z,34.42
2023-01-22T08:39:27.393Z,33.24
2023-01-22T08:42:37.257Z,31.64
2023-01-22T08:45:43.297Z,30.22
2023-01-22T08:48:51.016Z,30.80
2023-01-22T08:51:57.271Z,32.94
2023-01-22T08:55:05.567Z,33.42
2023-01-22T08:58:15.319Z,34.29
2023-01-22T09:01:24.314Z,32.73
2023-01-22T09:04:31.666Z,33.56
2023-01-22T09:07:38.654Z,33.07
2023-01-22T09:10:46.251Z,35.86
2023-01-22T09:13:57.322Z,35.89
2023-01-22T09:17:03.371Z,35.99
2023-01-22T09:20:11.609Z,36.92
2023-01-22T09:23:17.773Z,35.12
2023-01-22T09:26:24.866Z,35.86
2023-01-22T09:29:33.555Z,36.07
2023-01-22T09:32:41.580Z,36.21
2023-01-22T09:35:47.991Z,36.77
2023-01-22T09:38:55.407Z,35.43
2023-01-22T09:42:07.241Z,36.18
2023-01-22T09:45:26.016Z,37.09
2023-01-22T09:48:43.862Z,39.05
2023-01-22T09:51:58.536Z,36.31
2023-01-22T09:55:04.824Z,36.58
2023-01-22T09:58:19.376Z,37.41
2023-01-22T10:01:30.421Z,38.11
2023-01-22T10:04:45.784Z,39.48
2023-01-22T10:08:03.619Z,41.86
2023-01-22T10:11:13.462Z,39.29
2023-01-22T10:14:25.421Z,39.52
2023-01-22T10:17:42.244Z,38.52
2023-01-22T10:20:49.040Z,36.30
2023-01-22T10:23:58.453Z,33.46
2023-01-22T10:27:16.856Z,32.76
2023-01-22T10:30:28.970Z,32.49
2023-01-22T10:33:44.808Z,34.38
2023-01-22T10:36:56.584Z,35.34
2023-01-22T10:40:08.537Z,34.39
2023-01-22T10:43:20.073Z,30.38
2023-01-22T10:46:29.029Z,28.11
2023-01-22T10:49:38.792Z,31.05
2023-01-22T10:52:51.811Z,29.40
2023-01-22T10:56:03.884Z,28.68
2023-01-22T10:59:27.772Z,31.30
2023-01-22T11:02:38.919Z,30.52
2023-01-22T11:05:53.989Z,29.83
2023-01-22T11:09:11.126Z,31.98
2023-01-22T11:12:27.715Z,32.08
2023-01-22T11:15:46.117Z,32.20
2023-01-22T11:19:01.113Z,31.65
2023-01-22T11:22:28.244Z,31.58
2023-01-22T11:25:46.900Z,32.36
2023-01-22T11:29:11.211Z,30.85
2023-01-22T11:32:47.694Z,33.36
2023-01-22T11:36:09.467Z,31.66
2023-01-22T11:39:45.374Z,33.64
2023-01-22T11:43:33.142Z,30.49
2023-01-22T11:47:06.095Z,30.86
2023-01-22T11:50:31.271Z,33.33
2023-01-22T11:54:15.403Z,35.23
2023-01-22T11:57:37.312Z,41.50
2023-01-22T12:00:54.947Z,39.10
2023-01-22T12:04:37.772Z,37.05
2023-01-22T12:08:13.036Z,33.45
2023-01-22T12:11:51.210Z,32.29
2023-01-22T12:15:22.695Z,40.81
2023-01-22T12:19:14.343Z,33.50
2023-01-22T12:22:35.168Z,38.75
2023-01-22T12:25:56.113Z,39.15
2023-01-22T12:29:17.528Z,39.38
2023-01-22T12:32:33.723Z,43.30
2023-01-22T12:35:40.014Z,39.84
2023-01-22T12:38:57.651Z,41.15
2023-01-22T12:42:26.248Z,41.18
2023-01-22T12:45:48.219Z,39.46
2023-01-22T12:49:09.102Z,39.49
2023-01-22T12:52:33.541Z,43.06
2023-01-22T12:55:44.402Z,42.44
2023-01-22T12:59:00.800Z,46.25
2023-01-22T13:02:23.645Z,48.75
2023-01-22T13:05:47.338Z,49.37
2023-01-22T13:08:53.408Z,42.11
2023-01-22T13:12:12.388Z,43.21
2023-01-22T13:15:25.706Z,44.82
2023-01-22T13:18:38.063Z,45.84
2023-01-22T13:21:48.947Z,49.45
2023-01-22T13:24:58.759Z,55.99
2023-01-22T13:28:06.327Z,55.55
2023-01-22T13:31:21.028Z,56.54
2023-01-22T13:34:31.253Z,59.93
2023-01-22T13:37:42.096Z,72.88
2023-01-22T13:40:51.798Z,113.93
2023-01-22T13:44:00.455Z,180.92
2023-01-22T13:47:08.546Z,94.73
2023-01-22T13:50:25.537Z,65.04
2023-01-22T13:53:42.251Z,60.06
2023-01-22T13:56:49.530Z,58.07
2023-01-22T13:59:57.054Z,58.07
2023-01-22T14:03:05.111Z,54.88
2023-01-22T14:06:15.333Z,55.66
2023-01-22T14:09:34.261Z,61.41
2023-01-22T14:12:40.431Z,70.32
2023-01-22T14:16:01.774Z,59.72
2023-01-22T14:19:07.813Z,58.59
2023-01-22T14:22:14.711Z,51.28
2023-01-22T14:25:23.544Z,54.72
2023-01-22T14:28:34.281Z,54.54
2023-01-22T14:31:42.804Z,66.61
2023-01-22T14:34:49.739Z,67.03
2023-01-22T14:37:58.007Z,64.08
2023-01-22T14:41:10.768Z,56.02
2023-01-22T14:44:16.799Z,49.59
2023-01-22T14:47:23.698Z,49.88
2023-01-22T14:50:30.785Z,50.34
2023-01-22T14:53:37.649Z,52.63
2023-01-22T14:56:46.365Z,54.15
2023-01-22T14:59:53.444Z,56.87
2023-01-22T15:03:01.186Z,58.32
2023-01-22T15:06:08.707Z,57.97
2023-01-22T15:09:15.036Z,53.47
2023-01-22T15:12:24.551Z,54.85
2023-01-22T15:15:31.038Z,61.49
2023-01-22T15:18:38.362Z,58.94
2023-01-22T15:21:44.539Z,61.85
2023-01-22T15:24:51.624Z,57.18
2023-01-22T15:28:00.381Z,57.79
2023-01-22T15:31:08.816Z,80.24
2023-01-22T15:34:15.024Z,67.27
2023-01-22T15:37:22.087Z,54.01
2023-01-22T15:40:28.236Z,54.89
2023-01-22T15:43:37.893Z,56.82
2023-01-22T15:46:46.543Z,54.79
2023-01-22T15:49:53.545Z,55.11
2023-01-22T15:53:00.755Z,49.73
2023-01-22T15:56:08.640Z,47.34
2023-01-22T15:59:17.570Z,48.26
2023-01-22T16:02:24.410Z,52.11
2023-01-22T16:05:30.606Z,53.41
2023-01-22T16:08:38.082Z,54.52
2023-01-22T16:11:44.149Z,55.75
2023-01-22T16:14:53.795Z,59.50
2023-01-22T16:18:01.188Z,59.78
2023-01-22T16:21:10.772Z,59.07
2023-01-22T16:24:16.800Z,60.63
2023-01-22T16:27:23.714Z,58.92
2023-01-22T16:30:32.885Z,58.07
2023-01-22T16:33:44.075Z,60.18
2023-01-22T16:36:51.084Z,56.04
2023-01-22T16:39:58.038Z,55.91
2023-01-22T16:43:05.825Z,54.52
2023-01-22T16:46:17.013Z,53.06
2023-01-22T16:49:26.197Z,60.04
2023-01-22T16:52:34.400Z,63.32
2023-01-22T16:55:40.715Z,62.92
2023-01-22T16:58:47.587Z,57.66
2023-01-22T17:01:58.069Z,50.22
2023-01-22T17:05:06.659Z,53.54
2023-01-22T17:08:12.819Z,54.91
2023-01-22T17:11:20.521Z,53.99
2023-01-22T17:14:31.491Z,57.77
2023-01-22T17:17:41.364Z,60.22
2023-01-22T17:21:01.447Z,65.41
2023-01-22T17:24:10.398Z,72.47
2023-01-22T17:27:18.754Z,80.07
2023-01-22T17:30:25.885Z,85.41
2023-01-22T17:33:35.455Z,87.18
2023-01-22T17:36:44.859Z,79.69
2023-01-22T17:39:53.095Z,70.64
2023-01-22T17:43:00.067Z,66.96
2023-01-22T17:46:10.821Z,65.22
2023-01-22T17:49:20.372Z,69.05
2023-01-22T17:52:26.512Z,72.86
2023-01-22T17:55:33.629Z,75.65
2023-01-22T17:58:40.716Z,101.98
2023-01-22T18:01:48.012Z,134.21
2023-01-22T18:04:56.892Z,132.58
2023-01-22T18:08:03.926Z,100.16
2023-01-22T18:11:13.406Z,101.10
2023-01-22T18:14:28.438Z,85.67
2023-01-22T18:17:35.406Z,96.85
2023-01-22T18:20:49.969Z,86.46
2023-01-22T18:23:56.943Z,82.60
2023-01-22T18:27:03.945Z,73.67
2023-01-22T18:30:15.581Z,64.63
2023-01-22T18:33:23.831Z,66.19
2023-01-22T18:36:37.217Z,60.25
2023-01-22T18:39:44.572Z,54.06
2023-01-22T18:42:51.328Z,52.39
2023-01-22T18:45:58.581Z,65.50
2023-01-22T18:49:10.158Z,60.28
2023-01-22T18:52:19.959Z,56.01
2023-01-22T18:55:26.141Z,53.63
2023-01-22T18:58:34.349Z,50.29
2023-01-22T19:01:44.601Z,50.67
2023-01-22T19:04:51.703Z,48.33
2023-01-22T19:08:01.068Z,51.01
2023-01-22T19:11:08.996Z,50.94
2023-01-22T19:14:20.660Z,50.15
2023-01-22T19:17:28.384Z,44.05
2023-01-22T19:20:39.736Z,49.21
2023-01-22T19:23:53.384Z,49.38
2023-01-22T19:27:00.910Z,49.51
2023-01-22T19:30:10.546Z,48.41
2023-01-22T19:33:16.664Z,46.67
2023-01-22T19:36:27.612Z,47.37
2023-01-22T19:39:39.788Z,42.25
2023-01-22T19:42:49.335Z,39.46
2023-01-22T19:45:56.131Z,41.83
2023-01-22T19:49:03.627Z,45.11
2023-01-22T19:52:09.928Z,40.73
2023-01-22T19:55:21.311Z,42.00
2023-01-22T19:58:28.535Z,41.91
2023-01-22T20:01:37.097Z,39.39
2023-01-22T20:04:43.483Z,40.13
2023-01-22T20:07:50.805Z,40.63
2023-01-22T20:11:05.301Z,42.09
2023-01-22T20:14:12.389Z,42.48
2023-01-22T20:17:18.472Z,38.71
2023-01-22T20:20:26.456Z,37.61
2023-01-22T20:23:33.542Z,36.34
2023-01-22T20:26:43.194Z,40.78
2023-01-22T20:29:49.887Z,39.71
2023-01-22T20:32:57.061Z,43.04
2023-01-22T20:36:07.597Z,47.29
2023-01-22T20:39:16.433Z,49.78
2023-01-22T20:42:25.320Z,48.45
2023-01-22T20:45:32.506Z,44.59
2023-01-22T20:48:39.493Z,41.79
2023-01-22T20:51:46.531Z,42.52
2023-01-22T20:55:01.292Z,42.20
2023-01-22T20:58:11.859Z,44.00
2023-01-22T21:01:20.652Z,46.66
2023-01-22T21:04:27.843Z,48.69
2023-01-22T21:07:33.993Z,48.43
2023-01-22T21:10:40.962Z,40.01
2023-01-22T21:13:51.000Z,40.18
2023-01-22T21:16:58.008Z,40.15
2023-01-22T21:20:04.228Z,37.81
2023-01-22T21:23:11.131Z,35.12
2023-01-22T21:26:19.505Z,36.63
2023-01-22T21:29:29.137Z,36.51
2023-01-22T21:32:37.554Z,41.53
2023-01-22T21:35:51.326Z,48.63
2023-01-22T21:38:57.487Z,39.39
2023-01-22T21:42:16.753Z,40.82
2023-01-22T21:45:37.804Z,36.81
2023-01-22T21:48:44.732Z,36.47
2023-01-22T21:51:54.137Z,35.83
2023-01-22T21:55:01.209Z,34.63
2023-01-22T21:58:08.991Z,29.31
2023-01-22T22:01:25.302Z,26.64
2023-01-22T22:04:31.608Z,26.43
2023-01-22T22:07:38.566Z,27.47
2023-01-22T22:10:51.488Z,28.39
2023-01-22T22:13:59.392Z,29.78
2023-01-22T22:17:08.315Z,28.57
2023-01-22T22:20:16.240Z,28.11
2023-01-22T22:23:22.726Z,27.81
2023-01-22T22:26:30.588Z,27.94
2023-01-22T22:29:36.713Z,27.43
2023-01-22T22:32:46.260Z,27.91
2023-01-22T22:35:52.311Z,28.64
2023-01-22T22:39:00.637Z,26.81
2023-01-22T22:42:06.958Z,25.69
2023-01-22T22:45:14.341Z,27.34
2023-01-22T22:48:23.129Z,22.71
2023-01-22T22:51:34.401Z,21.27
2023-01-22T22:54:40.470Z,21.02
2023-01-22T22:57:47.308Z,20.14
2023-01-22T23:00:53.714Z,20.49
2023-01-22T23:04:04.357Z,20.93
2023-01-22T23:07:10.469Z,22.04
2023-01-22T23:10:29.070Z,26.51
2023-01-22T23:13:35.804Z,28.88
2023-01-22T23:16:45.785Z,31.62
2023-01-22T23:19:54.703Z,34.01
2023-01-22T23:23:02.258Z,35.59
2023-01-22T23:26:13.799Z,36.64
2023-01-22T23:29:26.890Z,34.30
2023-01-22T23:32:33.278Z,36.53
2023-01-22T23:35:42.928Z,39.56
2023-01-22T23:38:49.453Z,43.72
2023-01-22T23:41:56.409Z,43.03
2023-01-22T23:45:02.505Z,45.55
2023-01-22T23:48:09.828Z,50.46
2023-01-22T23:51:20.629Z,56.04
2023-01-22T23:54:27.646Z,56.26
2023-01-22T23:57:33.675Z,52.91
